KBKE/BKE METAR and TAF weather

Enter ICAO airport designator
Station Type Date Time Source
KBKE METAR 2018/12/10 19:53 UTC NOAA

KBKE 101953Z AUTO 36003KT 10SM BKN045 OVC055 02/M02 A3026 RMK AO2 SLP268 T00171022


Station Type Date Time Source
KBKE Decoded METAR 2018/12/10 19:53 UTC NOAA

BAKER MUNICIPAL AIRPORT, OR, United States (KBKE) 44-50N 117-49W 1024M
Dec 10, 2018 - 02:53 PM EST / 2018.12.10 1953 UTC
Wind: from the N (360 degrees) at 3 MPH (3 KT):0
Visibility: 10 mile(s):0
Sky conditions: overcast
Temperature: 35.1 F (1.7 C)
Dew Point: 28.0 F (-2.2 C)
Relative Humidity: 75%
Pressure (altimeter): 30.26 in. Hg (1024 hPa)
ob: KBKE 101953Z AUTO 36003KT 10SM BKN045 OVC055 02/M02 A3026 RMK AO2 SLP268 T00171022
cycle: 20

Station Type Date Time Source
KBKE TAF 2018/12/10 19:06 UTC NOAA

TAF
AMD KBKE 101904Z 1019/1118 VRB04KT P6SM OVC040
FM110400 11002KT 1SM BR OVC015
FM111600 11005KT P6SM VCSH OVC050


Example: see airport list